UWWW

Kurumoch International Airport

Samara, Russian Federation
TAF UWWW 251700Z 2518/2618 14003G08MPS 9999 SCT015 BKN100 TX09/2610Z TN03/2602Z TEMPO 2518/2524 18006G12MPS 3100 -SHRA BKN011CB OVC100 FM260000 17004G10MPS 5000 BR BKN011 OVC100 TEMPO 2600/2618 21008G15MPS 3100 -SHRA BKN007 SCT012CB OVC100
Issued Valid From Valid To
Apr-25 @ 17:00 UTC
(60 minutes ago)
Apr-25 @ 18:00 UTC
(in a few seconds)
Apr-26 @ 18:00 UTC
(in 24 hours)
Apr-25 @ 18:00 to Apr-26 @ 00:00
TAF UWWW 251700Z 2518/2618 14003G08MPS 9999 SCT015 BKN100 TX09/2610Z TN03/2602Z
Wind Visibility Clouds
140° at 6 knots
 Gusting to 16 knots
10,000+ meters
  • Scattered at 1,500' AGL
  • Broken at 10,000' AGL
Temporary Apr-25 @ 18:00 to Apr-26 @ 00:00
TEMPO 2518/2524 18006G12MPS 3100 -SHRA BKN011CB OVC100
Wind Visibility Clouds Conditions
180° at 12 knots
 Gusting to 23 knots
3,106 meters
  • Broken at 1,100' AGL
  • Overcast at 10,000' AGL
  • Light Rain
From Apr-26 @ 00:00 to Apr-26 @ 18:00
FM260000 17004G10MPS 5000 BR BKN011 OVC100
Wind Visibility Clouds Conditions
170° at 8 knots
 Gusting to 19 knots
5,005 meters
  • Broken at 1,100' AGL
  • Overcast at 10,000' AGL
  • Mist
Temporary Apr-26 @ 00:00 to Apr-26 @ 18:00
TEMPO 2600/2618 21008G15MPS 3100 -SHRA BKN007 SCT012CB OVC100
Wind Visibility Clouds Conditions
210° at 16 knots
 Gusting to 29 knots
3,106 meters
  • Broken at 700' AGL
  • Scattered at 1,200' AGL
  • Overcast at 10,000' AGL
  • Light Rain
TAF UWWW 251700Z 2518/2618 14003G08MPS 9999 SCT015 BKN100 TX09/2610Z TN03/2602Z TEMPO 2518/2524 18006G12MPS 3100 -SHRA BKN011CB OVC100 FM260000 17004G10MPS 5000 BR BKN011 OVC100 TEMPO 2600/2618 21008G15MPS 3100 -SHRA BKN007 SCT012CB OVC100
Issued Apr-25 @ 17:00 UTC
(60 minutes ago)
Valid From Apr-25 @ 18:00 UTC
(in a few seconds)
Valid To Apr-26 @ 18:00 UTC
(in 24 hours)
Apr-25 @ 18:00 - Apr-26 @ 00:00
Wind Visibility
140° at 6 knots
 Gusting to 16 knots
10,000+ meters
Clouds
  • Scattered at 1,500' AGL
  • Broken at 10,000' AGL
Temporary Apr-25 @ 18:00 - Apr-26 @ 00:00
Wind Visibility
180° at 12 knots
 Gusting to 23 knots
3,106 meters
Clouds
  • Broken at 1,100' AGL
  • Overcast at 10,000' AGL
Conditions
  • Light Rain
From Apr-26 @ 00:00 - Apr-26 @ 18:00
Wind Visibility
170° at 8 knots
 Gusting to 19 knots
5,005 meters
Clouds
  • Broken at 1,100' AGL
  • Overcast at 10,000' AGL
Conditions
  • Mist
Temporary Apr-26 @ 00:00 - Apr-26 @ 18:00
Wind Visibility
210° at 16 knots
 Gusting to 29 knots
3,106 meters
Clouds
  • Broken at 700' AGL
  • Scattered at 1,200' AGL
  • Overcast at 10,000' AGL
Conditions
  • Light Rain